sensor_id;sensor_type;location;lat;lon;timestamp;temperature;humidity
45319;DHT22;31057;48.498;32.260;2023-06-26T00:00:06;19.50;99.90
45319;DHT22;31057;48.498;32.260;2023-06-26T00:02:09;19.40;99.90
45319;DHT22;31057;48.498;32.260;2023-06-26T00:04:10;19.40;99.90
45319;DHT22;31057;48.498;32.260;2023-06-26T00:06:16;19.40;99.90
45319;DHT22;31057;48.498;32.260;2023-06-26T00:08:18;19.40;99.90
45319;DHT22;31057;48.498;32.260;2023-06-26T00:10:20;19.40;99.90
45319;DHT22;31057;48.498;32.260;2023-06-26T00:12:22;19.40;99.90
45319;DHT22;31057;48.498;32.260;2023-06-26T00:14:23;19.40;99.90
45319;DHT22;31057;48.498;32.260;2023-06-26T00:16:26;19.40;99.90
45319;DHT22;31057;48.498;32.260;2023-06-26T00:18:27;19.30;99.90
45319;DHT22;31057;48.498;32.260;2023-06-26T00:20:30;19.30;99.90
45319;DHT22;31057;48.498;32.260;2023-06-26T00:22:35;19.40;99.90
45319;DHT22;31057;48.498;32.260;2023-06-26T00:24:37;19.30;99.90
45319;DHT22;31057;48.498;32.260;2023-06-26T00:26:39;19.30;99.90
45319;DHT22;31057;48.498;32.260;2023-06-26T00:28:41;19.30;99.90
45319;DHT22;31057;48.498;32.260;2023-06-26T00:30:43;19.20;99.90
45319;DHT22;31057;48.498;32.260;2023-06-26T00:32:44;19.10;99.90
45319;DHT22;31057;48.498;32.260;2023-06-26T00:34:46;19.20;99.90
45319;DHT22;31057;48.498;32.260;2023-06-26T00:36:48;19.10;99.90
45319;DHT22;31057;48.498;32.260;2023-06-26T00:38:50;19.10;99.90
45319;DHT22;31057;48.498;32.260;2023-06-26T00:40:52;19.10;99.90
45319;DHT22;31057;48.498;32.260;2023-06-26T00:42:56;19.10;99.90
45319;DHT22;31057;48.498;32.260;2023-06-26T00:44:58;19.00;99.90
45319;DHT22;31057;48.498;32.260;2023-06-26T00:47:00;19.10;99.90
45319;DHT22;31057;48.498;32.260;2023-06-26T00:49:02;19.00;99.90
45319;DHT22;31057;48.498;32.260;2023-06-26T00:51:08;19.00;99.90
45319;DHT22;31057;48.498;32.260;2023-06-26T00:53:10;19.10;99.90
45319;DHT22;31057;48.498;32.260;2023-06-26T00:55:12;19.00;99.90
45319;DHT22;31057;48.498;32.260;2023-06-26T00:57:17;19.00;99.90
45319;DHT22;31057;48.498;32.260;2023-06-26T00:59:19;19.00;99.90
45319;DHT22;31057;48.498;32.260;2023-06-26T01:01:21;19.00;99.90
45319;DHT22;31057;48.498;32.260;2023-06-26T01:03:27;19.00;99.90
45319;DHT22;31057;48.498;32.260;2023-06-26T01:05:29;19.00;99.90
45319;DHT22;31057;48.498;32.260;2023-06-26T01:07:31;18.90;99.90
45319;DHT22;31057;48.498;32.260;2023-06-26T01:09:36;18.90;99.90
45319;DHT22;31057;48.498;32.260;2023-06-26T01:11:37;18.90;99.90
45319;DHT22;31057;48.498;32.260;2023-06-26T01:13:40;19.00;99.90
45319;DHT22;31057;48.498;32.260;2023-06-26T01:15:42;18.90;99.90
45319;DHT22;31057;48.498;32.260;2023-06-26T01:17:44;18.90;99.90
45319;DHT22;31057;48.498;32.260;2023-06-26T01:19:47;18.90;99.90
45319;DHT22;31057;48.498;32.260;2023-06-26T01:21:50;18.90;99.90
45319;DHT22;31057;48.498;32.260;2023-06-26T01:24:05;18.90;99.90
45319;DHT22;31057;48.498;32.260;2023-06-26T01:26:20;18.90;99.90
45319;DHT22;31057;48.498;32.260;2023-06-26T01:28:22;18.90;99.90
45319;DHT22;31057;48.498;32.260;2023-06-26T01:30:25;18.90;99.90
45319;DHT22;31057;48.498;32.260;2023-06-26T01:32:28;18.80;99.90
45319;DHT22;31057;48.498;32.260;2023-06-26T01:34:30;18.80;99.90
45319;DHT22;31057;48.498;32.260;2023-06-26T01:36:32;18.80;99.90
45319;DHT22;31057;48.498;32.260;2023-06-26T01:38:34;18.80;99.90
45319;DHT22;31057;48.498;32.260;2023-06-26T01:40:38;18.80;99.90
45319;DHT22;31057;48.498;32.260;2023-06-26T01:42:41;18.80;99.90
45319;DHT22;31057;48.498;32.260;2023-06-26T01:44:44;18.70;99.90
45319;DHT22;31057;48.498;32.260;2023-06-26T01:48:55;18.80;99.90
45319;DHT22;31057;48.498;32.260;2023-06-26T01:51:00;18.80;99.90
45319;DHT22;31057;48.498;32.260;2023-06-26T01:53:21;18.80;99.90
45319;DHT22;31057;48.498;32.260;2023-06-26T01:57:27;18.70;99.90
45319;DHT22;31057;48.498;32.260;2023-06-26T01:59:30;18.80;99.90
45319;DHT22;31057;48.498;32.260;2023-06-26T02:01:33;18.70;99.90
45319;DHT22;31057;48.498;32.260;2023-06-26T02:03:35;18.70;99.90
45319;DHT22;31057;48.498;32.260;2023-06-26T02:05:37;18.70;99.90
45319;DHT22;31057;48.498;32.260;2023-06-26T02:07:39;18.70;99.90
45319;DHT22;31057;48.498;32.260;2023-06-26T02:09:41;18.70;99.90
45319;DHT22;31057;48.498;32.260;2023-06-26T02:11:43;18.70;99.90
45319;DHT22;31057;48.498;32.260;2023-06-26T02:13:45;18.70;99.90
45319;DHT22;31057;48.498;32.260;2023-06-26T02:15:47;18.60;99.90
45319;DHT22;31057;48.498;32.260;2023-06-26T02:17:49;18.70;99.90
45319;DHT22;31057;48.498;32.260;2023-06-26T02:19:51;18.70;99.90
45319;DHT22;31057;48.498;32.260;2023-06-26T02:21:53;18.70;99.90
45319;DHT22;31057;48.498;32.260;2023-06-26T02:23:55;18.60;99.90
45319;DHT22;31057;48.498;32.260;2023-06-26T02:25:56;18.70;99.90
45319;DHT22;31057;48.498;32.260;2023-06-26T02:27:58;18.60;99.90
45319;DHT22;31057;48.498;32.260;2023-06-26T02:30:00;18.60;99.90
45319;DHT22;31057;48.498;32.260;2023-06-26T02:32:02;18.60;99.90
45319;DHT22;31057;48.498;32.260;2023-06-26T02:34:04;18.60;99.90
45319;DHT22;31057;48.498;32.260;2023-06-26T02:36:05;18.60;99.90
45319;DHT22;31057;48.498;32.260;2023-06-26T02:38:07;18.50;99.90
45319;DHT22;31057;48.498;32.260;2023-06-26T02:40:10;18.50;99.90
45319;DHT22;31057;48.498;32.260;2023-06-26T02:42:11;18.40;99.90
45319;DHT22;31057;48.498;32.260;2023-06-26T02:44:13;18.40;99.90
45319;DHT22;31057;48.498;32.260;2023-06-26T02:46:15;18.40;99.90
45319;DHT22;31057;48.498;32.260;2023-06-26T02:48:17;18.40;99.90
45319;DHT22;31057;48.498;32.260;2023-06-26T02:50:19;18.40;99.90
45319;DHT22;31057;48.498;32.260;2023-06-26T02:52:21;18.30;99.90
45319;DHT22;31057;48.498;32.260;2023-06-26T02:54:22;18.30;99.90
45319;DHT22;31057;48.498;32.260;2023-06-26T02:56:24;18.30;99.90
45319;DHT22;31057;48.498;32.260;2023-06-26T02:58:30;18.30;99.90
45319;DHT22;31057;48.498;32.260;2023-06-26T03:00:32;18.40;99.90
45319;DHT22;31057;48.498;32.260;2023-06-26T03:02:33;18.30;99.90
45319;DHT22;31057;48.498;32.260;2023-06-26T03:04:35;18.30;99.90
45319;DHT22;31057;48.498;32.260;2023-06-26T03:06:38;18.30;99.90
45319;DHT22;31057;48.498;32.260;2023-06-26T03:08:39;18.30;99.90
45319;DHT22;31057;48.498;32.260;2023-06-26T03:10:41;18.30;99.90
45319;DHT22;31057;48.498;32.260;2023-06-26T03:12:43;18.20;99.90
45319;DHT22;31057;48.498;32.260;2023-06-26T03:14:45;18.20;99.90
45319;DHT22;31057;48.498;32.260;2023-06-26T03:16:48;18.20;99.90
45319;DHT22;31057;48.498;32.260;2023-06-26T03:18:51;18.20;99.90
45319;DHT22;31057;48.498;32.260;2023-06-26T03:20:53;18.20;99.90
45319;DHT22;31057;48.498;32.260;2023-06-26T03:22:57;18.20;99.90
45319;DHT22;31057;48.498;32.260;2023-06-26T03:24:59;18.20;99.90
45319;DHT22;31057;48.498;32.260;2023-06-26T03:27:01;18.20;99.90
45319;DHT22;31057;48.498;32.260;2023-06-26T03:29:03;18.20;99.90
45319;DHT22;31057;48.498;32.260;2023-06-26T03:31:04;18.30;99.90
45319;DHT22;31057;48.498;32.260;2023-06-26T03:33:06;18.20;99.90
45319;DHT22;31057;48.498;32.260;2023-06-26T03:35:08;18.30;99.90
45319;DHT22;31057;48.498;32.260;2023-06-26T03:37:11;18.20;99.90
45319;DHT22;31057;48.498;32.260;2023-06-26T03:39:12;18.20;99.90
45319;DHT22;31057;48.498;32.260;2023-06-26T03:41:14;18.30;99.90
45319;DHT22;31057;48.498;32.260;2023-06-26T03:43:16;18.20;99.90
45319;DHT22;31057;48.498;32.260;2023-06-26T03:45:18;18.30;99.90
45319;DHT22;31057;48.498;32.260;2023-06-26T03:47:20;18.30;99.90
45319;DHT22;31057;48.498;32.260;2023-06-26T03:49:22;18.30;99.90
45319;DHT22;31057;48.498;32.260;2023-06-26T03:51:24;18.30;99.90
45319;DHT22;31057;48.498;32.260;2023-06-26T03:53:26;18.30;99.90
45319;DHT22;31057;48.498;32.260;2023-06-26T03:55:28;18.40;99.90
45319;DHT22;31057;48.498;32.260;2023-06-26T03:57:30;18.40;99.90
45319;DHT22;31057;48.498;32.260;2023-06-26T03:59:31;18.40;99.90
45319;DHT22;31057;48.498;32.260;2023-06-26T04:01:33;18.30;99.90
45319;DHT22;31057;48.498;32.260;2023-06-26T04:03:37;18.40;99.90
45319;DHT22;31057;48.498;32.260;2023-06-26T04:05:39;18.50;99.90
45319;DHT22;31057;48.498;32.260;2023-06-26T04:07:41;18.50;99.90
45319;DHT22;31057;48.498;32.260;2023-06-26T04:09:43;18.60;99.90
45319;DHT22;31057;48.498;32.260;2023-06-26T04:11:45;18.60;99.90
45319;DHT22;31057;48.498;32.260;2023-06-26T04:13:46;18.60;99.90
45319;DHT22;31057;48.498;32.260;2023-06-26T04:15:48;18.60;99.90
45319;DHT22;31057;48.498;32.260;2023-06-26T04:17:50;18.70;99.90
45319;DHT22;31057;48.498;32.260;2023-06-26T04:19:52;18.60;99.90
45319;DHT22;31057;48.498;32.260;2023-06-26T04:21:54;18.60;99.90
45319;DHT22;31057;48.498;32.260;2023-06-26T04:23:55;18.70;99.90
45319;DHT22;31057;48.498;32.260;2023-06-26T04:25:58;18.80;99.90
45319;DHT22;31057;48.498;32.260;2023-06-26T04:28:00;18.80;99.90
45319;DHT22;31057;48.498;32.260;2023-06-26T04:30:01;18.90;99.90
45319;DHT22;31057;48.498;32.260;2023-06-26T04:32:03;19.00;99.90
45319;DHT22;31057;48.498;32.260;2023-06-26T04:34:05;19.00;99.90
45319;DHT22;31057;48.498;32.260;2023-06-26T04:36:07;19.10;99.90
45319;DHT22;31057;48.498;32.260;2023-06-26T04:38:09;19.00;99.90
45319;DHT22;31057;48.498;32.260;2023-06-26T04:40:11;19.20;99.90
45319;DHT22;31057;48.498;32.260;2023-06-26T04:42:12;19.20;99.90
45319;DHT22;31057;48.498;32.260;2023-06-26T04:44:14;19.30;99.90
45319;DHT22;31057;48.498;32.260;2023-06-26T04:46:16;19.40;99.90
45319;DHT22;31057;48.498;32.260;2023-06-26T04:48:18;19.40;99.90
45319;DHT22;31057;48.498;32.260;2023-06-26T04:50:20;19.40;99.90
45319;DHT22;31057;48.498;32.260;2023-06-26T04:52:22;19.60;99.90
45319;DHT22;31057;48.498;32.260;2023-06-26T04:54:23;19.60;99.90
45319;DHT22;31057;48.498;32.260;2023-06-26T04:56:25;19.70;99.90
45319;DHT22;31057;48.498;32.260;2023-06-26T04:58:27;19.70;99.90
45319;DHT22;31057;48.498;32.260;2023-06-26T05:00:29;19.60;99.90
45319;DHT22;31057;48.498;32.260;2023-06-26T05:02:31;19.80;99.90
45319;DHT22;31057;48.498;32.260;2023-06-26T05:04:33;19.90;99.90
45319;DHT22;31057;48.498;32.260;2023-06-26T05:06:34;19.80;99.90
45319;DHT22;31057;48.498;32.260;2023-06-26T05:08:36;19.90;99.90
45319;DHT22;31057;48.498;32.260;2023-06-26T05:10:38;20.00;99.90
45319;DHT22;31057;48.498;32.260;2023-06-26T05:12:40;20.10;99.90
45319;DHT22;31057;48.498;32.260;2023-06-26T05:14:42;20.10;99.90
45319;DHT22;31057;48.498;32.260;2023-06-26T05:16:44;20.20;99.90
45319;DHT22;31057;48.498;32.260;2023-06-26T05:18:46;20.40;99.90
45319;DHT22;31057;48.498;32.260;2023-06-26T05:20:48;20.60;99.90
45319;DHT22;31057;48.498;32.260;2023-06-26T05:22:50;20.70;99.90
45319;DHT22;31057;48.498;32.260;2023-06-26T05:24:51;20.60;99.90
45319;DHT22;31057;48.498;32.260;2023-06-26T05:26:56;20.10;99.90
45319;DHT22;31057;48.498;32.260;2023-06-26T05:28:58;20.10;99.90
45319;DHT22;31057;48.498;32.260;2023-06-26T05:30:59;20.10;99.90
45319;DHT22;31057;48.498;32.260;2023-06-26T05:33:02;20.00;99.90
45319;DHT22;31057;48.498;32.260;2023-06-26T05:35:04;20.00;99.90
45319;DHT22;31057;48.498;32.260;2023-06-26T05:37:07;19.90;99.90
45319;DHT22;31057;48.498;32.260;2023-06-26T05:39:09;20.00;99.90
45319;DHT22;31057;48.498;32.260;2023-06-26T05:41:11;20.00;99.90
45319;DHT22;31057;48.498;32.260;2023-06-26T05:43:13;20.10;99.90
45319;DHT22;31057;48.498;32.260;2023-06-26T05:45:15;20.00;99.90
45319;DHT22;31057;48.498;32.260;2023-06-26T05:47:17;20.00;99.90
45319;DHT22;31057;48.498;32.260;2023-06-26T05:49:19;19.80;99.90
45319;DHT22;31057;48.498;32.260;2023-06-26T05:51:21;19.70;99.90
45319;DHT22;31057;48.498;32.260;2023-06-26T05:53:23;19.70;99.90
45319;DHT22;31057;48.498;32.260;2023-06-26T05:55:25;19.80;99.90
45319;DHT22;31057;48.498;32.260;2023-06-26T05:57:27;19.80;99.90
45319;DHT22;31057;48.498;32.260;2023-06-26T05:59:30;19.70;99.90
45319;DHT22;31057;48.498;32.260;2023-06-26T06:01:32;19.80;99.90
45319;DHT22;31057;48.498;32.260;2023-06-26T06:03:35;19.90;99.90
45319;DHT22;31057;48.498;32.260;2023-06-26T06:05:37;19.90;99.90
45319;DHT22;31057;48.498;32.260;2023-06-26T06:07:39;20.00;99.90
45319;DHT22;31057;48.498;32.260;2023-06-26T06:09:40;20.30;99.90
45319;DHT22;31057;48.498;32.260;2023-06-26T06:11:42;20.30;99.90
45319;DHT22;31057;48.498;32.260;2023-06-26T06:13:44;20.30;99.90
45319;DHT22;31057;48.498;32.260;2023-06-26T06:15:46;20.20;99.90
45319;DHT22;31057;48.498;32.260;2023-06-26T06:17:48;20.30;99.90
45319;DHT22;31057;48.498;32.260;2023-06-26T06:19:49;20.20;99.90
45319;DHT22;31057;48.498;32.260;2023-06-26T06:21:51;20.30;99.90
45319;DHT22;31057;48.498;32.260;2023-06-26T06:23:53;20.60;99.90
45319;DHT22;31057;48.498;32.260;2023-06-26T06:25:55;20.50;99.90
45319;DHT22;31057;48.498;32.260;2023-06-26T06:27:57;20.60;99.90
45319;DHT22;31057;48.498;32.260;2023-06-26T06:30:00;20.80;99.90
45319;DHT22;31057;48.498;32.260;2023-06-26T06:32:02;20.90;99.90
45319;DHT22;31057;48.498;32.260;2023-06-26T06:34:04;21.10;99.90
45319;DHT22;31057;48.498;32.260;2023-06-26T06:36:06;20.80;99.90
45319;DHT22;31057;48.498;32.260;2023-06-26T06:38:08;21.10;99.90
45319;DHT22;31057;48.498;32.260;2023-06-26T06:40:10;21.30;99.90
45319;DHT22;31057;48.498;32.260;2023-06-26T06:42:11;21.40;99.90
45319;DHT22;31057;48.498;32.260;2023-06-26T06:44:13;21.70;99.90
45319;DHT22;31057;48.498;32.260;2023-06-26T06:46:15;21.70;99.90
45319;DHT22;31057;48.498;32.260;2023-06-26T06:48:17;21.50;99.90
45319;DHT22;31057;48.498;32.260;2023-06-26T06:50:19;21.50;99.90
45319;DHT22;31057;48.498;32.260;2023-06-26T06:52:21;22.00;99.90
45319;DHT22;31057;48.498;32.260;2023-06-26T06:54:25;22.10;99.90
45319;DHT22;31057;48.498;32.260;2023-06-26T06:56:27;22.30;99.90
45319;DHT22;31057;48.498;32.260;2023-06-26T06:58:29;21.50;99.90
45319;DHT22;31057;48.498;32.260;2023-06-26T07:00:35;21.70;99.90
45319;DHT22;31057;48.498;32.260;2023-06-26T07:02:38;21.30;99.90
45319;DHT22;31057;48.498;32.260;2023-06-26T07:04:40;21.30;99.90
45319;DHT22;31057;48.498;32.260;2023-06-26T07:06:42;20.90;99.90
45319;DHT22;31057;48.498;32.260;2023-06-26T07:08:44;20.80;99.90
45319;DHT22;31057;48.498;32.260;2023-06-26T07:10:45;21.00;99.90
45319;DHT22;31057;48.498;32.260;2023-06-26T07:12:47;20.80;99.90
45319;DHT22;31057;48.498;32.260;2023-06-26T07:14:49;20.90;99.90
45319;DHT22;31057;48.498;32.260;2023-06-26T07:16:51;21.60;99.90
45319;DHT22;31057;48.498;32.260;2023-06-26T07:18:53;21.90;99.90
45319;DHT22;31057;48.498;32.260;2023-06-26T07:20:56;22.20;99.90
45319;DHT22;31057;48.498;32.260;2023-06-26T07:22:58;22.40;99.90
45319;DHT22;31057;48.498;32.260;2023-06-26T07:24:59;21.90;99.90
45319;DHT22;31057;48.498;32.260;2023-06-26T07:27:01;21.90;99.90
45319;DHT22;31057;48.498;32.260;2023-06-26T07:29:03;22.10;99.90
45319;DHT22;31057;48.498;32.260;2023-06-26T07:31:05;21.60;99.90
45319;DHT22;31057;48.498;32.260;2023-06-26T07:33:07;21.90;99.90
45319;DHT22;31057;48.498;32.260;2023-06-26T07:35:09;21.90;99.90
45319;DHT22;31057;48.498;32.260;2023-06-26T07:37:11;21.90;99.90
45319;DHT22;31057;48.498;32.260;2023-06-26T07:39:12;22.50;99.90
45319;DHT22;31057;48.498;32.260;2023-06-26T07:41:22;21.90;99.90
45319;DHT22;31057;48.498;32.260;2023-06-26T07:43:23;21.80;99.90
45319;DHT22;31057;48.498;32.260;2023-06-26T07:45:25;21.80;99.90
45319;DHT22;31057;48.498;32.260;2023-06-26T07:47:27;21.70;99.90
45319;DHT22;31057;48.498;32.260;2023-06-26T07:49:31;22.00;99.90
45319;DHT22;31057;48.498;32.260;2023-06-26T07:51:32;22.00;99.90
45319;DHT22;31057;48.498;32.260;2023-06-26T07:53:35;22.30;99.90
45319;DHT22;31057;48.498;32.260;2023-06-26T07:55:36;22.60;99.90
45319;DHT22;31057;48.498;32.260;2023-06-26T07:57:38;23.00;99.90
45319;DHT22;31057;48.498;32.260;2023-06-26T07:59:40;23.10;99.90
45319;DHT22;31057;48.498;32.260;2023-06-26T08:01:42;22.10;99.90
45319;DHT22;31057;48.498;32.260;2023-06-26T08:03:44;22.10;99.90
45319;DHT22;31057;48.498;32.260;2023-06-26T08:05:46;22.40;99.90
45319;DHT22;31057;48.498;32.260;2023-06-26T08:07:48;23.20;99.90
45319;DHT22;31057;48.498;32.260;2023-06-26T08:09:50;23.10;99.90
45319;DHT22;31057;48.498;32.260;2023-06-26T08:11:51;22.70;99.90
45319;DHT22;31057;48.498;32.260;2023-06-26T08:13:53;23.00;99.90
45319;DHT22;31057;48.498;32.260;2023-06-26T08:15:55;23.00;99.90
45319;DHT22;31057;48.498;32.260;2023-06-26T08:17:57;22.90;99.90
45319;DHT22;31057;48.498;32.260;2023-06-26T08:19:59;23.10;99.90
45319;DHT22;31057;48.498;32.260;2023-06-26T08:22:00;23.20;99.90
45319;DHT22;31057;48.498;32.260;2023-06-26T08:24:02;23.10;99.90
45319;DHT22;31057;48.498;32.260;2023-06-26T08:26:04;23.30;99.90
45319;DHT22;31057;48.498;32.260;2023-06-26T08:28:06;23.30;99.90
45319;DHT22;31057;48.498;32.260;2023-06-26T08:30:08;23.40;99.90
45319;DHT22;31057;48.498;32.260;2023-06-26T08:32:10;23.40;99.90
45319;DHT22;31057;48.498;32.260;2023-06-26T08:34:12;23.40;99.90
45319;DHT22;31057;48.498;32.260;2023-06-26T08:36:14;23.70;99.90
45319;DHT22;31057;48.498;32.260;2023-06-26T08:38:16;23.60;99.90
45319;DHT22;31057;48.498;32.260;2023-06-26T08:40:22;23.30;99.90
45319;DHT22;31057;48.498;32.260;2023-06-26T08:42:25;23.10;99.90
45319;DHT22;31057;48.498;32.260;2023-06-26T08:44:26;22.80;99.90
45319;DHT22;31057;48.498;32.260;2023-06-26T08:46:28;22.40;99.90
45319;DHT22;31057;48.498;32.260;2023-06-26T08:48:32;22.90;99.90
45319;DHT22;31057;48.498;32.260;2023-06-26T08:50:35;23.50;99.90
45319;DHT22;31057;48.498;32.260;2023-06-26T08:52:56;23.20;99.90
45319;DHT22;31057;48.498;32.260;2023-06-26T08:54:59;23.40;99.90
45319;DHT22;31057;48.498;32.260;2023-06-26T08:57:03;23.40;99.90
45319;DHT22;31057;48.498;32.260;2023-06-26T08:59:06;23.00;99.90
45319;DHT22;31057;48.498;32.260;2023-06-26T09:01:08;23.10;99.90
45319;DHT22;31057;48.498;32.260;2023-06-26T09:03:10;23.20;99.90
45319;DHT22;31057;48.498;32.260;2023-06-26T09:05:14;23.50;99.90
45319;DHT22;31057;48.498;32.260;2023-06-26T09:07:16;23.40;99.90
45319;DHT22;31057;48.498;32.260;2023-06-26T09:09:18;23.20;99.90
45319;DHT22;31057;48.498;32.260;2023-06-26T09:11:20;23.10;99.90
45319;DHT22;31057;48.498;32.260;2023-06-26T09:13:22;22.90;99.90
45319;DHT22;31057;48.498;32.260;2023-06-26T09:15:37;23.30;99.90
45319;DHT22;31057;48.498;32.260;2023-06-26T09:17:39;23.10;99.90
45319;DHT22;31057;48.498;32.260;2023-06-26T09:19:48;23.10;99.90
45319;DHT22;31057;48.498;32.260;2023-06-26T09:21:50;23.60;99.90
45319;DHT22;31057;48.498;32.260;2023-06-26T09:23:53;24.10;99.90
45319;DHT22;31057;48.498;32.260;2023-06-26T09:25:55;23.80;99.90
45319;DHT22;31057;48.498;32.260;2023-06-26T09:27:57;23.20;99.90
45319;DHT22;31057;48.498;32.260;2023-06-26T09:29:59;23.40;99.90
45319;DHT22;31057;48.498;32.260;2023-06-26T09:32:01;23.80;99.90
45319;DHT22;31057;48.498;32.260;2023-06-26T09:34:03;24.10;99.90
45319;DHT22;31057;48.498;32.260;2023-06-26T09:36:05;24.40;99.90
45319;DHT22;31057;48.498;32.260;2023-06-26T09:38:07;24.50;99.90
45319;DHT22;31057;48.498;32.260;2023-06-26T09:40:09;24.60;99.90
45319;DHT22;31057;48.498;32.260;2023-06-26T09:42:13;24.50;99.90
45319;DHT22;31057;48.498;32.260;2023-06-26T09:44:15;24.50;99.90
45319;DHT22;31057;48.498;32.260;2023-06-26T09:46:17;24.60;99.90
45319;DHT22;31057;48.498;32.260;2023-06-26T09:48:21;24.70;99.90
45319;DHT22;31057;48.498;32.260;2023-06-26T09:50:23;24.40;99.90
45319;DHT22;31057;48.498;32.260;2023-06-26T09:52:27;24.10;99.90
45319;DHT22;31057;48.498;32.260;2023-06-26T09:54:30;24.40;99.90
45319;DHT22;31057;48.498;32.260;2023-06-26T09:56:33;24.40;99.90
45319;DHT22;31057;48.498;32.260;2023-06-26T09:58:35;24.50;99.90
45319;DHT22;31057;48.498;32.260;2023-06-26T10:00:38;24.20;99.90
45319;DHT22;31057;48.498;32.260;2023-06-26T10:02:41;24.00;99.90
45319;DHT22;31057;48.498;32.260;2023-06-26T10:04:43;24.00;99.90
45319;DHT22;31057;48.498;32.260;2023-06-26T10:06:46;24.40;99.90
45319;DHT22;31057;48.498;32.260;2023-06-26T10:08:49;24.20;99.90
45319;DHT22;31057;48.498;32.260;2023-06-26T10:10:51;24.50;99.90
45319;DHT22;31057;48.498;32.260;2023-06-26T10:12:59;24.60;99.90
45319;DHT22;31057;48.498;32.260;2023-06-26T10:15:02;24.60;99.90
45319;DHT22;31057;48.498;32.260;2023-06-26T10:17:07;23.90;99.90
45319;DHT22;31057;48.498;32.260;2023-06-26T10:19:10;24.40;99.90
45319;DHT22;31057;48.498;32.260;2023-06-26T10:21:13;24.80;99.90
45319;DHT22;31057;48.498;32.260;2023-06-26T10:23:15;24.20;99.90
45319;DHT22;31057;48.498;32.260;2023-06-26T10:25:18;24.80;99.90
45319;DHT22;31057;48.498;32.260;2023-06-26T10:27:21;24.70;99.90
45319;DHT22;31057;48.498;32.260;2023-06-26T10:29:24;24.50;99.90
45319;DHT22;31057;48.498;32.260;2023-06-26T10:31:26;24.50;99.90
45319;DHT22;31057;48.498;32.260;2023-06-26T10:33:32;24.50;99.90
45319;DHT22;31057;48.498;32.260;2023-06-26T10:35:40;24.30;99.90
45319;DHT22;31057;48.498;32.260;2023-06-26T10:41:47;25.00;99.90
45319;DHT22;31057;48.498;32.260;2023-06-26T10:44:11;24.90;99.90
45319;DHT22;31057;48.498;32.260;2023-06-26T10:46:14;24.80;99.90
45319;DHT22;31057;48.498;32.260;2023-06-26T10:48:16;24.50;99.90
45319;DHT22;31057;48.498;32.260;2023-06-26T10:50:19;24.70;99.90
45319;DHT22;31057;48.498;32.260;2023-06-26T10:52:25;24.50;99.90
45319;DHT22;31057;48.498;32.260;2023-06-26T10:54:31;24.20;99.90
45319;DHT22;31057;48.498;32.260;2023-06-26T10:56:43;24.40;99.90
45319;DHT22;31057;48.498;32.260;2023-06-26T10:58:45;24.50;99.90
45319;DHT22;31057;48.498;32.260;2023-06-26T11:00:49;24.40;99.90
45319;DHT22;31057;48.498;32.260;2023-06-26T11:02:51;24.50;99.90
45319;DHT22;31057;48.498;32.260;2023-06-26T11:04:53;24.90;99.90
45319;DHT22;31057;48.498;32.260;2023-06-26T11:09:23;24.30;99.90
45319;DHT22;31057;48.498;32.260;2023-06-26T11:13:46;24.40;99.90
45319;DHT22;31057;48.498;32.260;2023-06-26T11:15:49;24.40;99.90
45319;DHT22;31057;48.498;32.260;2023-06-26T11:17:51;24.90;99.90
45319;DHT22;31057;48.498;32.260;2023-06-26T11:19:53;24.90;99.90
45319;DHT22;31057;48.498;32.260;2023-06-26T11:21:59;24.60;99.90
45319;DHT22;31057;48.498;32.260;2023-06-26T11:24:01;24.60;99.90
45319;DHT22;31057;48.498;32.260;2023-06-26T11:28:15;24.10;99.90
45319;DHT22;31057;48.498;32.260;2023-06-26T11:30:26;24.60;99.90
45319;DHT22;31057;48.498;32.260;2023-06-26T11:32:28;24.70;99.90
45319;DHT22;31057;48.498;32.260;2023-06-26T11:34:30;24.80;99.90
45319;DHT22;31057;48.498;32.260;2023-06-26T11:36:33;24.60;99.90
45319;DHT22;31057;48.498;32.260;2023-06-26T11:38:38;24.30;99.90
45319;DHT22;31057;48.498;32.260;2023-06-26T11:40:40;24.50;99.90
45319;DHT22;31057;48.498;32.260;2023-06-26T11:42:42;24.30;99.90
45319;DHT22;31057;48.498;32.260;2023-06-26T11:44:44;24.50;99.90
45319;DHT22;31057;48.498;32.260;2023-06-26T11:46:46;24.60;99.90
45319;DHT22;31057;48.498;32.260;2023-06-26T11:48:50;24.50;99.90
45319;DHT22;31057;48.498;32.260;2023-06-26T11:50:52;24.60;99.90
45319;DHT22;31057;48.498;32.260;2023-06-26T11:52:58;24.90;99.90
45319;DHT22;31057;48.498;32.260;2023-06-26T11:55:00;25.00;99.90
45319;DHT22;31057;48.498;32.260;2023-06-26T11:57:02;24.90;99.90
45319;DHT22;31057;48.498;32.260;2023-06-26T11:59:10;24.90;99.90
45319;DHT22;31057;48.498;32.260;2023-06-26T12:01:15;24.60;99.90
45319;DHT22;31057;48.498;32.260;2023-06-26T12:03:17;24.20;99.90
45319;DHT22;31057;48.498;32.260;2023-06-26T12:05:19;24.10;99.90
45319;DHT22;31057;48.498;32.260;2023-06-26T12:07:21;24.10;99.90
45319;DHT22;31057;48.498;32.260;2023-06-26T12:09:24;24.70;99.90
45319;DHT22;31057;48.498;32.260;2023-06-26T12:11:26;25.10;99.90
45319;DHT22;31057;48.498;32.260;2023-06-26T12:13:31;24.60;99.90
45319;DHT22;31057;48.498;32.260;2023-06-26T12:15:33;24.00;99.90
45319;DHT22;31057;48.498;32.260;2023-06-26T12:17:37;24.10;99.90
45319;DHT22;31057;48.498;32.260;2023-06-26T12:19:42;24.50;99.90
45319;DHT22;31057;48.498;32.260;2023-06-26T12:21:45;24.40;99.90
45319;DHT22;31057;48.498;32.260;2023-06-26T12:23:47;24.40;99.90
45319;DHT22;31057;48.498;32.260;2023-06-26T12:25:49;24.20;99.90
45319;DHT22;31057;48.498;32.260;2023-06-26T12:27:54;24.50;99.90
45319;DHT22;31057;48.498;32.260;2023-06-26T12:29:56;24.40;99.90
45319;DHT22;31057;48.498;32.260;2023-06-26T12:31:58;24.60;99.90
45319;DHT22;31057;48.498;32.260;2023-06-26T12:34:00;24.60;99.90
45319;DHT22;31057;48.498;32.260;2023-06-26T12:36:02;24.50;99.90
45319;DHT22;31057;48.498;32.260;2023-06-26T12:38:06;24.60;99.90
45319;DHT22;31057;48.498;32.260;2023-06-26T12:40:17;24.80;99.90
45319;DHT22;31057;48.498;32.260;2023-06-26T12:42:21;25.00;99.90
45319;DHT22;31057;48.498;32.260;2023-06-26T12:44:27;24.50;99.90
45319;DHT22;31057;48.498;32.260;2023-06-26T12:46:35;24.30;99.90
45319;DHT22;31057;48.498;32.260;2023-06-26T12:50:45;24.30;99.90
45319;DHT22;31057;48.498;32.260;2023-06-26T12:52:47;24.00;99.90
45319;DHT22;31057;48.498;32.260;2023-06-26T12:54:51;24.10;99.90
45319;DHT22;31057;48.498;32.260;2023-06-26T12:56:53;23.80;99.90
45319;DHT22;31057;48.498;32.260;2023-06-26T12:58:55;23.90;99.90